KAYS/AYS METAR and TAF weather

Enter ICAO airport designator
Station Type Date Time Source
KAYS METAR 2019/02/23 17:15 UTC NOAA

KAYS 231715Z AUTO 13006KT 10SM OVC010 22/20 A3015 RMK AO2 T02230195


Station Type Date Time Source
KAYS Decoded METAR 2019/02/23 17:15 UTC NOAA

Waycross / Ware County, Ga, GA, United States (KAYS) 31-15N 082-24W 46M
Feb 23, 2019 - 12:15 PM EST / 2019.02.23 1715 UTC
Wind: from the SE (130 degrees) at 7 MPH (6 KT):0
Visibility: 10 mile(s):0
Sky conditions: overcast
Temperature: 72.1 F (22.3 C)
Dew Point: 67.1 F (19.5 C)
Relative Humidity: 84%
Pressure (altimeter): 30.15 in. Hg (1020 hPa)
ob: KAYS 231715Z AUTO 13006KT 10SM OVC010 22/20 A3015 RMK AO2 T02230195
cycle: 17

Station Type Date Time Source
KAYS TAF UTC NOAA

Error!


Example: see airport list